Ban Ang, Thailand

11:41 PM +07 on August 17, 2017 (GMT +0700)
Freefall Thailand | | Change Station

Elev 20 ft 12.71 °N, 101.63 °E | Updated 9 seconds ago

Rain
Rain
76.8 °F
Feels Like 77 °F
N
0.0
Wind Variable Wind from WNW
Gusts 0.0 mph

Today
High -- | Low -- °F
--% Chance of Precip.
Yesterday
High -- | Low -- °F
Precip. -- in
Pressure 29.74 in
Visibility 5.0 miles
Clouds Few 2000 ft
Heat Index 77 °F
Dew Point 76 °F
Humidity 97%
Rainfall 0.64 in
Snow Depth Not available.
6:01 AM 6:33 PM
Waning Crescent, 21% visible
METAR VTBU 171630Z 27006KT 8000 FEW020 28/21 Q1007 NOSIG
Pressure 29.74 in
Visibility 5.0 miles
Clouds Few 2000 ft
Heat Index 77 °F
Dew Point 76 °F
Humidity 97%
Rainfall 0.64 in
Snow Depth Not available.
6:01 AM 6:33 PM
Waning Crescent, 21% visible
METAR VTBU 171630Z 27006KT 8000 FEW020 28/21 Q1007 NOSIG

Get Severe Weather Alerts

Thanks for signing up!

Be on the lookout for a verification email in your inbox.

You'll start receiving the daily forecast at 6 AM.

×

10-Day Weather Forecast

No radar image for this location.
×

Almanac

Astronomy

Aug. 17, 2017 Rise Set
Actual Time
Civil Twilight
Nautical Twilight
Astronomical Twilight
Moon
Length of Visible Light
Length of Day
Tomorrow will be .
, % of the Moon is Illuminated

Today's Extremes

Country Highs Country Lows

Community

WunderPhotos

Category 6

Welcome to Category 6. This is the collective home for Weather Underground's featured writeups by Dr. Jeff Masters (right), Bob Henson (left), Chris Burt, and other regular contributors.

Nearby

Air Quality

  Air Quality AQ Index Pollutant
Not available.

Snow Depth

Station Depth Elevation

Earthquake Activity

City Distance Mag. Time & Date
Minimum magnitude displayed is 2.5.

Coastal Water Temperatures

Place Temperature

Stations

Nearby Weather Stations

Station Location Temp. Windchill Dew Point Humidity Wind Precip. Elev Updated Type